Time;durP1;ratioP1;P1;durP2;ratioP2;P2;SDS_P1;SDS_P2;PMS_P1;PMS_P2;Temp;Humidity;BMP_temperature;BMP_pressure;BME280_temperature;BME280_humidity;BME280_pressure;Samples;Min_cycle;Max_cycle;Signal;HPM_P1;HPM_P2
2021/07/15 00:02:16;;;;;;;19.25;17.02;;;30.20;53.40;;;;;;4754768;55;21025;-26
2021/07/15 00:07:18;;;;;;;18.90;16.85;;;30.20;53.50;;;;;;4743933;55;21077;-25
2021/07/15 00:12:18;;;;;;;21.62;17.80;;;30.20;53.50;;;;;;4739074;55;21078;-27
2021/07/15 00:17:19;;;;;;;20.05;17.90;;;30.20;53.50;;;;;;4738626;59;21030;-26
2021/07/15 00:22:20;;;;;;;18.87;16.73;;;30.20;53.60;;;;;;4759487;55;21511;-24
2021/07/15 00:27:21;;;;;;;18.85;16.92;;;30.20;53.60;;;;;;4755225;55;21102;-27
2021/07/15 00:32:21;;;;;;;19.73;17.35;;;30.20;53.60;;;;;;4744262;55;21054;-26
2021/07/15 00:37:23;;;;;;;19.90;16.90;;;30.20;53.70;;;;;;4756919;55;21030;-24
2021/07/15 00:42:24;;;;;;;19.35;17.12;;;30.20;53.70;;;;;;4757636;55;21026;-29
2021/07/15 00:47:24;;;;;;;20.25;17.70;;;30.20;53.70;;;;;;4754565;55;21062;-29
2021/07/15 00:52:26;;;;;;;19.37;16.02;;;30.20;53.70;;;;;;4761802;55;21488;-26
2021/07/15 00:57:27;;;;;;;18.12;16.23;;;30.20;53.70;;;;;;4757039;55;21121;-27
2021/07/15 01:02:27;;;;;;;17.87;16.08;;;30.20;53.80;;;;;;4758290;55;21001;-27
2021/07/15 01:07:28;;;;;;;18.85;16.70;;;30.20;53.90;;;;;;4746341;55;21069;-25
2021/07/15 01:13:34;;;;;;;19.33;16.33;;;30.20;53.80;;;;;;4738703;59;21092;-27
2021/07/15 01:21:18;;;;;;;17.80;15.93;;;30.20;53.80;;;;;;4751432;55;22152;-26
2021/07/15 01:29:37;;;;;;;17.23;15.43;;;30.20;53.90;;;;;;4775144;55;21014;-28
2021/07/15 01:34:40;;;;;;;17.12;15.32;;;30.20;53.90;;;;;;4761000;55;21117;-25
2021/07/15 01:39:43;;;;;;;19.42;16.40;;;30.20;53.90;;;;;;4758748;55;21010;-28
2021/07/15 01:44:44;;;;;;;16.75;14.95;;;30.20;54.00;;;;;;4743270;55;20990;-30
2021/07/15 01:49:49;;;;;;;17.30;15.52;;;30.20;54.00;;;;;;4755639;55;21045;-24
2021/07/15 01:54:51;;;;;;;17.55;15.57;;;30.20;54.00;;;;;;4751111;55;20982;-26
2021/07/15 01:59:53;;;;;;;16.98;15.07;;;30.20;54.00;;;;;;4834793;55;21599;-26
2021/07/15 02:04:56;;;;;;;17.27;14.65;;;30.20;54.10;;;;;;4747157;55;21480;-26
2021/07/15 02:09:57;;;;;;;18.33;16.33;;;30.20;54.10;;;;;;4742095;55;21029;-25
2021/07/15 02:14:58;;;;;;;17.02;15.32;;;30.20;54.70;;;;;;4803969;55;21008;-28
2021/07/15 02:20:00;;;;;;;17.08;15.27;;;30.20;54.10;;;;;;4758604;55;21073;-28
2021/07/15 02:25:03;;;;;;;16.60;14.80;;;30.20;54.20;;;;;;4739134;59;21058;-27
2021/07/15 02:30:10;;;;;;;17.00;14.75;;;30.20;54.20;;;;;;4766919;55;21070;-23
2021/07/15 02:35:14;;;;;;;16.58;14.82;;;30.20;54.30;;;;;;4806080;55;22309;-25
2021/07/15 02:40:17;;;;;;;16.92;15.13;;;30.20;54.30;;;;;;4778084;55;21033;-28
2021/07/15 02:45:20;;;;;;;17.95;15.52;;;30.20;54.30;;;;;;4747118;55;21045;-28
2021/07/15 02:50:24;;;;;;;16.20;14.50;;;30.20;54.30;;;;;;4745073;55;21129;-26
2021/07/15 02:55:27;;;;;;;15.70;14.13;;;30.20;54.30;;;;;;4758559;55;21041;-31
2021/07/15 03:00:35;;;;;;;15.90;14.20;;;30.20;54.30;;;;;;4737474;59;21097;-25
2021/07/15 03:05:48;;;;;;;15.77;14.07;;;30.20;54.30;;;;;;4776307;55;21571;-29
2021/07/15 03:10:54;;;;;;;16.73;13.98;;;30.20;54.40;;;;;;4739037;59;21018;-25
2021/07/15 03:15:55;;;;;;;14.98;13.38;;;30.20;54.40;;;;;;4746142;55;20986;-27
2021/07/15 03:21:02;;;;;;;16.60;14.20;;;30.10;54.40;;;;;;4759188;55;21030;-27
2021/07/15 03:26:03;;;;;;;17.45;13.82;;;30.10;54.40;;;;;;4740620;55;21353;-27
2021/07/15 03:31:10;;;;;;;16.33;13.57;;;30.20;54.50;;;;;;4760835;55;21053;-25
2021/07/15 03:36:12;;;;;;;15.00;13.40;;;30.20;54.50;;;;;;4738442;59;21037;-27
2021/07/15 03:41:15;;;;;;;16.55;13.73;;;30.20;54.60;;;;;;4781855;55;21030;-23
2021/07/15 03:46:17;;;;;;;15.95;12.93;;;30.20;54.60;;;;;;4776338;55;21002;-25
2021/07/15 03:51:18;;;;;;;17.90;14.00;;;30.10;54.50;;;;;;4752952;55;21058;-27
2021/07/15 03:56:21;;;;;;;15.15;13.20;;;30.10;54.60;;;;;;4738906;59;21042;-25
2021/07/15 04:01:22;;;;;;;15.70;13.13;;;30.10;54.60;;;;;;4744724;55;21639;-25
2021/07/15 04:06:26;;;;;;;14.65;13.00;;;30.10;54.70;;;;;;4774730;55;21102;-28
2021/07/15 04:11:29;;;;;;;15.07;13.02;;;30.10;54.70;;;;;;4742068;55;20994;-25
2021/07/15 04:16:50;;;;;;;15.95;13.25;;;30.10;54.70;;;;;;4764768;55;21898;-24
2021/07/15 04:21:54;;;;;;;14.32;12.45;;;30.10;54.70;;;;;;4764096;55;21619;-22
2021/07/15 04:26:58;;;;;;;15.20;13.02;;;30.10;54.80;;;;;;4756547;55;22184;-26
2021/07/15 04:32:08;;;;;;;14.60;12.30;;;30.10;54.80;;;;;;4738942;59;20994;-25
2021/07/15 04:37:09;;;;;;;14.18;12.40;;;30.10;54.80;;;;;;4780780;55;21001;-28
2021/07/15 04:42:11;;;;;;;14.85;12.50;;;30.10;54.80;;;;;;4754854;55;21069;-27
2021/07/15 04:47:14;;;;;;;14.48;12.18;;;30.00;54.80;;;;;;4738463;59;21125;-29
2021/07/15 04:52:16;;;;;;;16.30;12.10;;;30.00;54.80;;;;;;4745654;55;21069;-26
2021/07/15 04:57:18;;;;;;;14.25;12.00;;;30.00;54.80;;;;;;4759501;55;21033;-24
2021/07/15 05:02:22;;;;;;;17.52;12.55;;;30.00;54.80;;;;;;4750888;55;21030;-28
2021/07/15 05:07:26;;;;;;;14.45;12.05;;;30.00;54.80;;;;;;4748962;55;21491;-27
2021/07/15 05:12:27;;;;;;;13.25;11.55;;;30.00;54.90;;;;;;4738301;59;20990;-26
2021/07/15 05:17:28;;;;;;;14.30;12.10;;;30.00;54.90;;;;;;4739387;59;21033;-25
2021/07/15 05:22:29;;;;;;;15.60;12.35;;;30.00;54.80;;;;;;4777556;55;21050;-30
2021/07/15 05:27:31;;;;;;;14.02;11.27;;;30.00;54.90;;;;;;4809600;55;21487;-26
2021/07/15 05:32:32;;;;;;;14.85;11.75;;;30.00;54.90;;;;;;4751056;55;20994;-29
2021/07/15 05:37:34;;;;;;;15.05;11.68;;;30.00;55.00;;;;;;4755058;55;21077;-32
2021/07/15 05:42:35;;;;;;;14.98;11.80;;;30.00;54.90;;;;;;4749549;55;21100;-25
2021/07/15 05:47:36;;;;;;;16.75;11.50;;;30.00;54.90;;;;;;4739169;55;21018;-23
2021/07/15 05:52:37;;;;;;;14.15;11.02;;;30.00;54.90;;;;;;4740423;55;21029;-27
2021/07/15 05:57:38;;;;;;;13.70;11.23;;;30.00;54.90;;;;;;4753087;55;21046;-24
2021/07/15 06:02:39;;;;;;;14.50;11.35;;;30.00;54.90;;;;;;4764931;55;21057;-23
2021/07/15 06:07:40;;;;;;;13.18;11.32;;;30.00;54.90;;;;;;4738256;59;21066;-26
2021/07/15 06:12:41;;;;;;;14.73;11.20;;;30.00;54.90;;;;;;4739405;55;21045;-26
2021/07/15 06:17:43;;;;;;;16.00;11.25;;;30.00;54.90;;;;;;4738405;59;21089;-24
2021/07/15 06:22:47;;;;;;;12.77;10.73;;;30.00;54.90;;;;;;4738311;59;20994;-25
2021/07/15 06:27:49;;;;;;;13.55;10.60;;;30.00;54.90;;;;;;4760111;55;21089;-25
2021/07/15 06:32:50;;;;;;;12.70;11.20;;;30.00;54.90;;;;;;4738315;59;21557;-28
2021/07/15 06:37:54;;;;;;;13.32;11.15;;;30.00;54.80;;;;;;4751372;55;21504;-26
2021/07/15 06:42:54;;;;;;;14.18;10.52;;;30.00;54.80;;;;;;4828112;55;21112;-27
2021/07/15 06:47:55;;;;;;;13.80;10.65;;;30.00;54.70;;;;;;4758047;55;22013;-28
2021/07/15 06:52:56;;;;;;;12.85;10.68;;;30.00;54.70;;;;;;4785793;55;21034;-25
2021/07/15 06:57:57;;;;;;;13.40;10.18;;;30.00;54.60;;;;;;4737315;59;21073;-29
2021/07/15 07:02:58;;;;;;;13.48;10.40;;;30.00;54.50;;;;;;4750253;55;20997;-29
2021/07/15 07:07:59;;;;;;;14.70;10.88;;;30.00;54.50;;;;;;4738314;59;20993;-30
2021/07/15 07:13:01;;;;;;;12.73;10.43;;;30.00;54.40;;;;;;4738006;59;21546;-26
2021/07/15 07:18:02;;;;;;;11.70;9.68;;;30.00;54.40;;;;;;4756500;55;21053;-29
2021/07/15 07:23:04;;;;;;;14.10;10.68;;;30.00;54.30;;;;;;4747059;55;21089;-29
2021/07/15 07:28:05;;;;;;;14.07;10.25;;;30.00;54.30;;;;;;4738505;59;21069;-31
2021/07/15 07:33:06;;;;;;;12.25;9.77;;;30.00;54.20;;;;;;4769082;55;21018;-31
2021/07/15 07:38:07;;;;;;;13.93;11.00;;;30.00;54.10;;;;;;4772517;55;21066;-27
2021/07/15 07:43:08;;;;;;;14.25;11.12;;;30.00;54.10;;;;;;4754611;55;21014;-24
2021/07/15 07:48:09;;;;;;;11.55;10.13;;;30.00;54.00;;;;;;4746641;55;21824;-24
2021/07/15 07:53:09;;;;;;;13.15;10.88;;;30.00;54.00;;;;;;4744246;55;21022;-27
2021/07/15 07:58:12;;;;;;;14.05;10.80;;;30.00;53.90;;;;;;4755507;55;21994;-29
2021/07/15 08:03:13;;;;;;;12.93;10.73;;;30.00;53.90;;;;;;4756571;55;21552;-27
2021/07/15 08:08:18;;;;;;;12.68;10.55;;;30.00;53.80;;;;;;4751619;55;21105;-34
2021/07/15 08:13:19;;;;;;;13.32;10.80;;;30.00;53.80;;;;;;4738777;56;21505;-32
2021/07/15 08:18:20;;;;;;;12.90;10.82;;;30.00;53.80;;;;;;4750791;55;21312;-26
2021/07/15 08:23:21;;;;;;;11.73;10.40;;;30.00;53.80;;;;;;4747280;55;21076;-27
2021/07/15 08:28:22;;;;;;;12.18;10.70;;;30.00;53.80;;;;;;4749026;55;21006;-25
2021/07/15 08:33:22;;;;;;;13.00;10.38;;;30.00;54.50;;;;;;4771171;55;21010;-29
2021/07/15 08:38:24;;;;;;;15.40;10.68;;;30.00;53.70;;;;;;4748908;55;21014;-26
2021/07/15 08:43:25;;;;;;;13.30;10.55;;;30.00;53.70;;;;;;4764361;55;21013;-29
2021/07/15 08:48:27;;;;;;;14.55;10.60;;;30.10;53.80;;;;;;4749740;55;21002;-31
2021/07/15 08:53:30;;;;;;;11.82;10.50;;;30.00;53.70;;;;;;4740772;55;21046;-31
2021/07/15 08:58:30;;;;;;;15.38;10.90;;;30.00;53.70;;;;;;4791474;55;21513;-29
2021/07/15 09:03:34;;;;;;;24.67;19.60;;;30.00;53.70;;;;;;4735655;59;20990;-27
2021/07/15 09:08:35;;;;;;;22.95;18.52;;;30.00;46.20;;;;;;4793426;55;21543;-29
2021/07/15 09:13:36;;;;;;;16.42;13.43;;;30.00;44.20;;;;;;4741487;55;21129;-28
2021/07/15 09:18:58;;;;;;;16.92;12.60;;;30.00;42.80;;;;;;4741610;55;21018;-28
2021/07/15 09:24:24;;;;;;;16.40;9.50;;;30.00;42.60;;;;;;4750780;55;21078;-22
2021/07/15 09:29:25;;;;;;;16.12;10.75;;;30.00;41.30;;;;;;4760809;55;21556;-29
2021/07/15 09:34:31;;;;;;;16.65;11.82;;;30.10;45.10;;;;;;4744044;55;21508;-27
2021/07/15 09:39:44;;;;;;;18.27;12.77;;;30.10;45.10;;;;;;4755440;55;21085;-26
2021/07/15 09:44:48;;;;;;;22.02;15.05;;;30.20;44.50;;;;;;4738190;59;21468;-29
2021/07/15 09:49:49;;;;;;;22.15;15.00;;;30.20;43.90;;;;;;4737918;56;21030;-28
2021/07/15 09:54:50;;;;;;;21.42;14.13;;;30.20;44.50;;;;;;4736984;59;21049;-28
2021/07/15 09:59:51;;;;;;;20.12;13.40;;;30.20;44.30;;;;;;4738726;55;21082;-26
2021/07/15 10:04:52;;;;;;;20.33;13.90;;;30.30;43.50;;;;;;4738890;55;21061;-25
2021/07/15 10:10:18;;;;;;;22.62;14.15;;;30.30;43.50;;;;;;4765497;55;21050;-29
2021/07/15 10:15:19;;;;;;;19.58;13.73;;;30.40;44.10;;;;;;4758830;55;21132;-29
2021/07/15 10:20:21;;;;;;;17.83;12.15;;;30.30;44.40;;;;;;4749924;55;21141;-32
2021/07/15 10:25:22;;;;;;;19.50;12.48;;;30.30;43.80;;;;;;4771308;55;20986;-30
2021/07/15 10:30:24;;;;;;;18.25;13.77;;;30.40;44.00;;;;;;4749002;55;21010;-33
2021/07/15 10:35:26;;;;;;;21.48;15.02;;;30.40;44.30;;;;;;4737985;55;21002;-25
2021/07/15 10:40:27;;;;;;;21.75;15.02;;;30.40;44.70;;;;;;4737208;59;21540;-29
2021/07/15 10:45:28;;;;;;;19.42;14.32;;;30.40;45.10;;;;;;4749822;55;21054;-31
2021/07/15 10:50:29;;;;;;;22.65;15.23;;;30.40;46.00;;;;;;4746928;55;20995;-28
2021/07/15 10:55:30;;;;;;;20.92;14.05;;;30.40;45.70;;;;;;4745705;55;22347;-30
2021/07/15 11:00:31;;;;;;;20.33;14.20;;;30.40;46.60;;;;;;4738101;55;21069;-27
2021/07/15 11:05:32;;;;;;;17.80;14.68;;;30.40;46.40;;;;;;4745164;55;21042;-26
2021/07/15 11:10:34;;;;;;;18.90;13.73;;;30.40;46.50;;;;;;4758422;55;21061;-27
2021/07/15 11:15:53;;;;;;;18.62;13.45;;;30.50;46.60;;;;;;4741884;55;21459;-26
2021/07/15 11:21:30;;;;;;;20.12;13.60;;;30.40;46.90;;;;;;4739053;55;21101;-29
2021/07/15 11:26:37;;;;;;;17.17;14.20;;;30.50;47.30;;;;;;4747802;55;21018;-28
2021/07/15 11:31:46;;;;;;;19.30;14.48;;;30.50;47.30;;;;;;4752458;55;21579;-27
2021/07/15 11:36:46;;;;;;;18.92;13.62;;;30.50;47.70;;;;;;4752327;55;20974;-32
2021/07/15 11:41:49;;;;;;;16.70;13.40;;;30.50;47.90;;;;;;4753316;55;21512;-27
2021/07/15 11:46:50;;;;;;;16.80;13.15;;;30.50;48.40;;;;;;4738560;59;21092;-28
2021/07/15 11:52:00;;;;;;;20.55;13.30;;;30.60;48.80;;;;;;4737126;55;21066;-29
2021/07/15 11:58:53;;;;;;;15.68;13.07;;;30.60;49.30;;;;;;4749925;55;21567;-27
2021/07/15 12:04:05;;;;;;;20.30;17.92;;;30.60;49.00;;;;;;4737845;55;21099;-22
2021/07/15 12:09:09;;;;;;;24.12;21.17;;;30.60;49.90;;;;;;4784749;55;20982;-26
2021/07/15 12:14:10;;;;;;;30.37;24.70;;;30.60;50.10;;;;;;4752593;55;21614;-24
2021/07/15 12:19:12;;;;;;;31.67;27.35;;;30.60;50.50;;;;;;4752374;55;21017;-24
2021/07/15 12:24:18;;;;;;;34.00;29.25;;;30.60;50.60;;;;;;4788547;55;21630;-30
2021/07/15 12:29:19;;;;;;;37.03;31.75;;;30.60;50.90;;;;;;4738856;59;21050;-27
2021/07/15 12:34:20;;;;;;;40.28;35.55;;;30.60;50.90;;;;;;4763645;55;21496;-25
2021/07/15 12:39:21;;;;;;;46.13;38.75;;;30.60;51.10;;;;;;4755528;55;21042;-24
2021/07/15 12:44:22;;;;;;;52.95;43.10;;;30.60;51.50;;;;;;4738583;55;21465;-27
2021/07/15 12:49:27;;;;;;;53.08;43.90;;;30.60;51.60;;;;;;4764713;55;20990;-25
2021/07/15 12:54:34;;;;;;;60.42;47.62;;;30.60;51.80;;;;;;4748642;55;21541;-24
2021/07/15 12:59:36;;;;;;;56.58;45.72;;;30.60;51.90;;;;;;4881697;55;21066;-25
2021/07/15 13:04:37;;;;;;;55.10;45.53;;;30.60;52.00;;;;;;4768349;55;20994;-26
2021/07/15 13:15:12;;;;;;;54.67;44.58;;;30.60;51.70;;;;;;4751879;55;21081;-29
2021/07/15 13:20:19;;;;;;;57.47;45.30;;;30.50;51.60;;;;;;4736918;59;21021;-23
2021/07/15 13:25:24;;;;;;;55.65;45.38;;;30.50;51.60;;;;;;4767115;55;21026;-22
2021/07/15 13:30:26;;;;;;;53.03;43.87;;;30.50;51.40;;;;;;4739009;55;21097;-25
2021/07/15 13:35:27;;;;;;;51.35;42.53;;;30.50;51.30;;;;;;4738105;59;21459;-27
2021/07/15 13:40:27;;;;;;;52.62;42.35;;;30.40;51.20;;;;;;4744164;55;21021;-22
2021/07/15 13:45:28;;;;;;;50.58;40.83;;;30.40;51.30;;;;;;4738730;59;21089;-27
2021/07/15 13:50:30;;;;;;;48.97;39.72;;;30.40;51.00;;;;;;4796569;55;21033;-24
2021/07/15 13:55:31;;;;;;;51.30;40.63;;;30.40;50.90;;;;;;4785696;55;21038;-21
2021/07/15 14:00:33;;;;;;;47.75;40.22;;;30.40;51.00;;;;;;4761676;55;21018;-27
2021/07/15 14:05:39;;;;;;;48.08;39.55;;;30.40;50.90;;;;;;4775785;55;21532;-26
2021/07/15 14:10:40;;;;;;;47.78;39.60;;;30.30;50.70;;;;;;4811038;55;21174;-29
2021/07/15 14:15:43;;;;;;;46.17;39.05;;;30.40;50.80;;;;;;4793208;55;21038;-24
2021/07/15 14:20:49;;;;;;;46.13;38.03;;;30.40;51.50;;;;;;4820700;55;21050;-27
2021/07/15 14:25:52;;;;;;;48.67;39.33;;;30.30;50.70;;;;;;4738359;59;21552;-25
2021/07/15 14:30:55;;;;;;;46.00;37.42;;;30.40;50.70;;;;;;4795772;55;21097;-25
2021/07/15 14:35:56;;;;;;;43.83;35.90;;;30.30;50.60;;;;;;4756711;55;21457;-26
2021/07/15 14:40:57;;;;;;;44.72;37.20;;;30.30;50.50;;;;;;4781997;55;21018;-24
2021/07/15 14:45:57;;;;;;;41.00;34.92;;;30.30;50.40;;;;;;4754240;55;20988;-23
2021/07/15 14:51:01;;;;;;;43.53;34.35;;;30.30;50.50;;;;;;4751825;55;21055;-23
2021/07/15 14:56:02;;;;;;;44.30;35.95;;;30.30;50.40;;;;;;4784296;55;21026;-27
2021/07/15 15:01:03;;;;;;;39.90;33.85;;;30.30;50.30;;;;;;4755786;55;21025;-24
2021/07/15 15:06:04;;;;;;;40.80;33.00;;;30.30;50.30;;;;;;4749535;55;21030;-35
2021/07/15 15:11:04;;;;;;;40.22;32.42;;;30.30;50.20;;;;;;4740789;55;21006;-29
2021/07/15 15:16:05;;;;;;;40.38;33.33;;;30.30;50.20;;;;;;4738400;55;21029;-24
2021/07/15 15:21:06;;;;;;;36.78;30.90;;;30.30;50.20;;;;;;4736955;59;21070;-24
2021/07/15 15:26:07;;;;;;;38.25;31.23;;;30.30;50.10;;;;;;4761285;55;20997;-27
2021/07/15 15:31:08;;;;;;;38.17;31.10;;;30.30;50.10;;;;;;4742228;55;21476;-25
2021/07/15 15:36:08;;;;;;;37.00;31.30;;;30.30;50.10;;;;;;4751746;55;21049;-24
2021/07/15 15:41:10;;;;;;;38.95;31.48;;;30.30;50.10;;;;;;4742865;55;21011;-23
2021/07/15 15:46:14;;;;;;;35.50;28.25;;;30.30;50.10;;;;;;4770067;55;20982;-24
2021/07/15 15:51:16;;;;;;;33.88;29.42;;;30.30;50.00;;;;;;4746086;55;22252;-25
2021/07/15 15:56:17;;;;;;;36.50;30.27;;;30.30;50.10;;;;;;4813074;55;21596;-26
2021/07/15 16:01:18;;;;;;;33.75;28.17;;;30.30;50.00;;;;;;4742836;55;21105;-25
2021/07/15 16:06:19;;;;;;;36.38;28.50;;;30.30;50.00;;;;;;4768737;55;21065;-28
2021/07/15 16:11:20;;;;;;;34.10;29.23;;;30.30;50.70;;;;;;4749267;55;21512;-22
2021/07/15 16:16:21;;;;;;;33.72;28.67;;;30.30;50.00;;;;;;4750681;55;20994;-26
2021/07/15 16:21:22;;;;;;;34.08;28.27;;;30.30;50.00;;;;;;4779352;55;21014;-26
2021/07/15 16:26:22;;;;;;;33.65;29.12;;;30.30;50.10;;;;;;4738158;59;21006;-23
2021/07/15 16:31:23;;;;;;;34.90;27.80;;;30.30;50.00;;;;;;4771413;55;21575;-25
2021/07/15 16:36:24;;;;;;;34.05;28.25;;;30.30;50.00;;;;;;4753639;55;21062;-26
2021/07/15 16:41:26;;;;;;;31.42;26.50;;;30.30;50.10;;;;;;4737516;59;21078;-28
2021/07/15 16:46:27;;;;;;;32.60;27.15;;;30.30;50.10;;;;;;4785282;55;21045;-31
2021/07/15 16:51:28;;;;;;;33.58;27.13;;;30.30;50.00;;;;;;4738986;59;20995;-25
2021/07/15 16:56:31;;;;;;;34.88;27.62;;;30.30;50.00;;;;;;4740320;55;21070;-24
2021/07/15 17:01:32;;;;;;;31.87;26.85;;;30.30;50.10;;;;;;4748412;55;21033;-26
2021/07/15 17:06:33;;;;;;;30.50;25.20;;;30.30;50.10;;;;;;4773822;55;21030;-26
2021/07/15 17:11:34;;;;;;;32.97;26.92;;;30.30;50.00;;;;;;4738485;55;21128;-26
2021/07/15 17:16:37;;;;;;;33.00;26.80;;;30.30;50.70;;;;;;4748618;55;21069;-27
2021/07/15 17:21:38;;;;;;;30.58;25.75;;;30.30;50.10;;;;;;4737781;59;21504;-27
2021/07/15 17:26:39;;;;;;;30.27;25.45;;;30.30;50.20;;;;;;4741600;55;21026;-31
2021/07/15 17:31:43;;;;;;;30.58;25.65;;;30.30;50.20;;;;;;4747552;55;21074;-27
2021/07/15 17:36:43;;;;;;;30.50;25.25;;;30.30;50.20;;;;;;4738236;59;21406;-28
2021/07/15 17:41:44;;;;;;;28.27;24.17;;;30.30;50.20;;;;;;4742581;55;21021;-28
2021/07/15 17:46:46;;;;;;;31.23;26.30;;;30.30;50.20;;;;;;4743440;55;21082;-27
2021/07/15 17:51:48;;;;;;;26.77;23.87;;;30.30;50.20;;;;;;4742761;55;21508;-24
2021/07/15 17:56:49;;;;;;;31.10;25.65;;;30.30;50.20;;;;;;4765184;55;21614;-27
2021/07/15 18:01:50;;;;;;;27.80;24.33;;;30.30;50.20;;;;;;4747876;55;21077;-25
2021/07/15 18:06:51;;;;;;;28.38;23.52;;;30.30;50.10;;;;;;4737916;59;21002;-25
2021/07/15 18:11:52;;;;;;;30.75;25.17;;;30.30;50.10;;;;;;4785711;55;21038;-27
2021/07/15 18:16:54;;;;;;;27.87;24.10;;;30.30;50.10;;;;;;4774283;55;21054;-26
2021/07/15 18:21:56;;;;;;;27.62;23.87;;;30.30;50.10;;;;;;4738767;55;21013;-31
2021/07/15 18:26:56;;;;;;;25.35;21.58;;;30.30;50.10;;;;;;4755650;55;21527;-29
2021/07/15 18:31:57;;;;;;;28.02;22.80;;;30.30;50.00;;;;;;4738462;55;20990;-28
2021/07/15 18:36:58;;;;;;;26.30;23.10;;;30.30;50.00;;;;;;4761845;55;21543;-25
2021/07/15 18:41:59;;;;;;;25.65;22.10;;;30.30;50.00;;;;;;4763430;55;21078;-23
2021/07/15 18:47:00;;;;;;;26.77;22.73;;;30.30;50.00;;;;;;4748273;55;21492;-24
2021/07/15 18:52:01;;;;;;;25.08;22.35;;;30.30;49.90;;;;;;4739551;55;21087;-24
2021/07/15 18:57:02;;;;;;;27.20;22.20;;;30.30;49.90;;;;;;4741582;55;21521;-26
2021/07/15 19:02:03;;;;;;;25.95;22.35;;;30.30;49.90;;;;;;4771514;55;21073;-24
2021/07/15 19:07:05;;;;;;;26.67;21.45;;;30.30;49.90;;;;;;4737354;59;21065;-26
2021/07/15 19:12:06;;;;;;;25.98;20.37;;;30.30;49.90;;;;;;4738444;55;21038;-26
2021/07/15 19:17:07;;;;;;;27.02;21.35;;;30.30;49.90;;;;;;4766661;55;21584;-26
2021/07/15 19:22:08;;;;;;;24.05;20.25;;;30.30;49.80;;;;;;4765523;55;21086;-26
2021/07/15 19:27:09;;;;;;;27.92;20.83;;;30.30;49.80;;;;;;4741021;55;21101;-27
2021/07/15 19:32:10;;;;;;;24.25;20.50;;;30.30;49.90;;;;;;4741519;55;21026;-26
2021/07/15 19:37:11;;;;;;;24.17;20.55;;;30.30;49.90;;;;;;4737555;59;21162;-27
2021/07/15 19:42:12;;;;;;;27.37;19.62;;;30.30;49.90;;;;;;4760392;55;21046;-25
2021/07/15 19:47:12;;;;;;;24.40;20.05;;;30.30;49.90;;;;;;4749129;55;21045;-23
2021/07/15 19:52:13;;;;;;;23.95;20.00;;;30.20;49.90;;;;;;4781935;55;21065;-26
2021/07/15 19:57:14;;;;;;;23.85;19.65;;;30.20;49.80;;;;;;4744157;55;21496;-26
2021/07/15 20:02:15;;;;;;;24.15;19.98;;;30.20;49.80;;;;;;4742316;55;21102;-24
2021/07/15 20:07:16;;;;;;;25.33;19.75;;;30.20;49.80;;;;;;4744233;55;21086;-27
2021/07/15 20:12:16;;;;;;;24.60;19.00;;;30.20;49.70;;;;;;4769953;55;21069;-27
2021/07/15 20:17:17;;;;;;;25.45;19.27;;;30.20;49.80;;;;;;4745454;55;21078;-26
2021/07/15 20:22:18;;;;;;;22.90;17.75;;;30.20;49.80;;;;;;4741835;55;21485;-23
2021/07/15 20:27:19;;;;;;;22.08;17.67;;;30.20;49.80;;;;;;4755130;55;21025;-27
2021/07/15 20:32:21;;;;;;;22.48;17.67;;;30.20;49.80;;;;;;4748563;55;21007;-24
2021/07/15 20:37:23;;;;;;;20.85;16.70;;;30.20;49.70;;;;;;4744435;55;21018;-27
2021/07/15 20:42:25;;;;;;;21.15;16.58;;;30.20;49.70;;;;;;4747377;55;21480;-23
2021/07/15 20:47:26;;;;;;;21.55;15.52;;;30.20;49.70;;;;;;4760998;55;21077;-26
2021/07/15 20:52:28;;;;;;;20.17;15.93;;;30.20;49.80;;;;;;4768843;55;21062;-25
2021/07/15 20:57:29;;;;;;;19.17;14.87;;;30.20;49.80;;;;;;4740526;55;21604;-26
2021/07/15 21:02:30;;;;;;;20.50;15.30;;;30.20;49.70;;;;;;4745430;55;21029;-27
2021/07/15 21:07:33;;;;;;;19.77;15.32;;;30.20;49.80;;;;;;4768243;55;21026;-25
2021/07/15 21:12:34;;;;;;;17.87;14.55;;;30.20;49.80;;;;;;4752810;55;21548;-23
2021/07/15 21:17:35;;;;;;;22.33;14.50;;;30.20;49.80;;;;;;4768931;55;21157;-23
2021/07/15 21:22:36;;;;;;;22.33;14.87;;;30.20;49.80;;;;;;4738462;59;21066;-29
2021/07/15 21:27:37;;;;;;;18.75;13.30;;;30.20;49.80;;;;;;4752415;55;20990;-24
2021/07/15 21:32:39;;;;;;;19.50;14.00;;;30.20;49.80;;;;;;4739003;55;21078;-24
2021/07/15 21:37:40;;;;;;;18.70;14.27;;;30.20;49.90;;;;;;4764288;55;21078;-22
2021/07/15 21:42:41;;;;;;;19.05;13.10;;;30.20;49.90;;;;;;4738400;55;21088;-29
2021/07/15 21:47:42;;;;;;;15.60;12.88;;;30.20;49.80;;;;;;4739591;55;20986;-20
2021/07/15 21:52:45;;;;;;;17.02;13.05;;;30.20;49.80;;;;;;4739585;55;21057;-26
2021/07/15 21:57:48;;;;;;;17.98;13.07;;;30.20;50.00;;;;;;4746494;55;21537;-23
2021/07/15 22:02:51;;;;;;;16.23;12.20;;;30.20;50.00;;;;;;4738296;59;21018;-24
2021/07/15 22:07:52;;;;;;;17.30;12.32;;;30.20;50.00;;;;;;4739585;55;22023;-26
2021/07/15 22:12:54;;;;;;;15.90;11.95;;;30.20;49.90;;;;;;4741224;55;21021;-24
2021/07/15 22:18:01;;;;;;;15.05;12.05;;;30.20;49.90;;;;;;4782205;55;21045;-22
2021/07/15 22:23:11;;;;;;;18.62;12.50;;;30.20;49.90;;;;;;4769846;55;20998;-23
2021/07/15 22:28:12;;;;;;;16.73;12.02;;;30.20;49.90;;;;;;4800062;55;20998;-25
2021/07/15 22:33:13;;;;;;;14.63;11.93;;;30.20;50.00;;;;;;4783638;55;21061;-31
2021/07/15 22:38:15;;;;;;;15.65;11.90;;;30.20;50.00;;;;;;4751111;55;20990;-27
2021/07/15 22:43:18;;;;;;;14.02;11.38;;;30.20;50.00;;;;;;4739696;55;21086;-29
2021/07/15 22:48:20;;;;;;;18.42;12.20;;;30.10;50.00;;;;;;4739034;59;20994;-21
2021/07/15 22:53:21;;;;;;;14.18;11.15;;;30.20;49.90;;;;;;4759755;55;21046;-22
2021/07/15 22:58:23;;;;;;;14.85;12.48;;;30.20;50.10;;;;;;4782264;55;21026;-26
2021/07/15 23:03:25;;;;;;;14.93;12.30;;;30.20;50.00;;;;;;4750379;55;21074;-29
2021/07/15 23:08:26;;;;;;;17.92;13.18;;;30.20;50.10;;;;;;4765628;55;20998;-28
2021/07/15 23:13:26;;;;;;;17.17;12.52;;;30.20;50.00;;;;;;4748251;55;20990;-28
2021/07/15 23:18:27;;;;;;;16.08;12.88;;;30.20;50.10;;;;;;4775482;55;21580;-32
2021/07/15 23:23:28;;;;;;;18.10;13.18;;;30.20;50.10;;;;;;4742402;55;21093;-28
2021/07/15 23:28:29;;;;;;;17.30;12.65;;;30.20;50.00;;;;;;4750384;55;21003;-32
2021/07/15 23:33:30;;;;;;;15.27;12.75;;;30.20;50.10;;;;;;4752374;55;21014;-26
2021/07/15 23:38:30;;;;;;;16.23;12.07;;;30.20;50.20;;;;;;4751032;55;21014;-28
2021/07/15 23:43:31;;;;;;;17.23;12.25;;;30.20;50.10;;;;;;4738218;59;21057;-25
2021/07/15 23:48:32;;;;;;;16.23;12.75;;;30.20;50.10;;;;;;4738355;59;20997;-30
2021/07/15 23:53:33;;;;;;;14.52;11.45;;;30.10;50.00;;;;;;4778504;55;21496;-23
2021/07/15 23:58:33;;;;;;;15.60;12.10;;;30.20;50.20;;;;;;4752877;55;21077;-26
